Grenadines III — CRA5628 — position and weather

sailwx.info

Track history (hours):
 
Tides and Currents Weather Stations Pressure Air Temp Water Temp Dewpoint Dewpoint Depression Visibility Wind Speed Wind Dir Waves Ship Positions

Grenadines III

Last reported at 2014-Jul-26 12:05 UTC. Time now 2014-Jul-26 13:10 UTC.
Position N 39°31' E 002°33'.

Type: Pilot. MMSI: 225910870.

Date/timePositionNaut miles runAvg speedWind from/ knotsBaromVisibWave heightAir tempDewpointWater temp
2014-Jul-26 12:05N 39°31' E 002°33'0 0.0
2014-Jul-26 11:29N 39°31' E 002°33'0 0.0
2014-Jul-26 10:29N 39°31' E 002°33'0 0.0
2014-Jul-26 09:31N 39°31' E 002°33'8 8.7
2014-Jul-26 08:33N 39°24' E 002°27'1010.0
2014-Jul-26 07:33N 39°18' E 002°16'1010.3
2014-Jul-26 06:33N 39°12' E 002°06'1010.4
2014-Jul-26 05:33N 39°06' E 001°55'1110.8
2014-Jul-26 04:33N 38°59' E 001°44'1111.0
2014-Jul-26 03:33N 38°54' E 001°31'4 0.5
2014-Jul-25 19:27N 38°54' E 001°27'8 0.8
2014-Jul-25 09:34N 38°46' E 001°26'2 0.5
2014-Jul-25 05:13N 38°48' E 001°24'710.8
2014-Jul-25 04:32N 38°52' E 001°32'1111.3
2014-Jul-25 03:33N 38°59' E 001°44'1111.3
2014-Jul-25 02:33N 39°06' E 001°55'1111.3
2014-Jul-25 01:33N 39°12' E 002°06'1111.1
2014-Jul-25 00:33N 39°19' E 002°18'1111.0
2014-Jul-24 23:33N 39°25' E 002°29'5 4.8
2014-Jul-24 22:31N 39°30' E 002°32'0 0.0
2014-Jul-24 21:31N 39°30' E 002°32'0 0.0
2014-Jul-24 20:19N 39°30' E 002°32'0 0.0
2014-Jul-24 19:22N 39°30' E 002°32'6 7.0
2014-Jul-24 18:33N 39°33' E 002°38'0 0.5
2014-Jul-24 17:32N 39°33' E 002°38'0 0.0
2014-Jul-24 16:32N 39°33' E 002°38'0 0.0
2014-Jul-24 15:32N 39°33' E 002°38'0 0.0
2014-Jul-24 14:32N 39°33' E 002°38'0 0.0
2014-Jul-24 13:32N 39°33' E 002°38'0 0.0
2014-Jul-24 12:32N 39°33' E 002°38'0 0.0
2014-Jul-24 11:32N 39°33' E 002°38'0 0.0
2014-Jul-24 10:32N 39°33' E 002°38'0 0.0
2014-Jul-24 09:32N 39°33' E 002°38'0 0.0
2014-Jul-24 08:32N 39°33' E 002°38'0 0.0
2014-Jul-24 07:32N 39°33' E 002°38'0 0.0
2014-Jul-24 06:32N 39°33' E 002°38'0 0.0
2014-Jul-24 05:32N 39°33' E 002°38'0 0.0
2014-Jul-24 04:32N 39°33' E 002°38'0 0.0
2014-Jul-24 03:32N 39°33' E 002°38'0 0.0
2014-Jul-24 02:32N 39°33' E 002°38'0 0.0
2014-Jul-24 01:32N 39°33' E 002°38'0 0.0
2014-Jul-24 00:32N 39°33' E 002°38'0 0.0
2014-Jul-23 23:32N 39°33' E 002°38'0 0.0
2014-Jul-23 22:32N 39°33' E 002°38'0 0.0
2014-Jul-23 21:32N 39°33' E 002°38'0 0.0
2014-Jul-23 20:32N 39°33' E 002°38'0 0.0
2014-Jul-23 19:32N 39°33' E 002°38'0 0.0
2014-Jul-23 18:32N 39°33' E 002°38'0 0.0
2014-Jul-23 17:32N 39°33' E 002°38'0 0.1
2014-Jul-23 16:32N 39°33' E 002°38'0 0.1
2014-Jul-23 15:32N 39°33' E 002°38'0 0.0
2014-Jul-23 14:32N 39°33' E 002°38'0 0.0
2014-Jul-23 13:32N 39°33' E 002°38'0 0.0
2014-Jul-23 12:32N 39°33' E 002°38'0 0.0
2014-Jul-23 11:32N 39°33' E 002°38'0 0.0
2014-Jul-23 10:32N 39°33' E 002°38'0 0.0
2014-Jul-23 09:32N 39°33' E 002°38'0 0.0
2014-Jul-23 08:32N 39°33' E 002°38'0 0.0
2014-Jul-23 07:32N 39°33' E 002°38'0 0.0
2014-Jul-23 06:32N 39°33' E 002°38'0 0.0
2014-Jul-23 05:32N 39°33' E 002°38'0 0.0
2014-Jul-23 04:32N 39°33' E 002°38'0 0.0
2014-Jul-23 03:32N 39°33' E 002°38'0 0.0
2014-Jul-23 02:32N 39°33' E 002°38'0 0.0
2014-Jul-23 01:32N 39°33' E 002°38'0 0.0
2014-Jul-23 00:32N 39°33' E 002°38'0 0.0
2014-Jul-22 23:32N 39°33' E 002°38'0 0.0
2014-Jul-22 22:32N 39°33' E 002°38'0 0.0
2014-Jul-22 21:32N 39°33' E 002°38'0 0.0
2014-Jul-22 20:32N 39°33' E 002°38'0 0.0
2014-Jul-22 19:32N 39°33' E 002°38'0 0.0
2014-Jul-22 18:32N 39°33' E 002°38'0 0.0
2014-Jul-22 17:32N 39°33' E 002°38'0 0.0
2014-Jul-22 16:32N 39°33' E 002°38'0 0.0
2014-Jul-22 15:32N 39°33' E 002°38'0 0.0
2014-Jul-22 14:32N 39°33' E 002°38'0 0.0
2014-Jul-22 13:32N 39°33' E 002°38'0 0.0
2014-Jul-22 12:32N 39°33' E 002°38'0 0.0
2014-Jul-22 11:32N 39°33' E 002°38'0 0.0
2014-Jul-22 10:32N 39°33' E 002°38'0 0.0
2014-Jul-22 09:32N 39°33' E 002°38'0 0.0
2014-Jul-22 08:32N 39°33' E 002°38'0 0.0
2014-Jul-22 07:32N 39°33' E 002°38'0 0.0
2014-Jul-22 06:32N 39°33' E 002°38'0 0.0
2014-Jul-22 05:32N 39°33' E 002°38'0 0.0
2014-Jul-22 04:32N 39°33' E 002°38'0 0.0
2014-Jul-22 03:32N 39°33' E 002°38'0 0.0
2014-Jul-22 02:32N 39°33' E 002°38'0 0.0
2014-Jul-22 01:32N 39°33' E 002°38'0 0.0
2014-Jul-22 00:32N 39°33' E 002°38'0 0.0
2014-Jul-21 23:32N 39°33' E 002°38'0 0.0
2014-Jul-21 22:32N 39°33' E 002°38'0 0.0
2014-Jul-21 21:29N 39°33' E 002°38'0 0.0
2014-Jul-21 20:32N 39°33' E 002°38'0 0.0
2014-Jul-21 20:17N 39°33' E 002°38'0 0.0
2014-Jul-21 19:32N 39°33' E 002°38'0 0.0
2014-Jul-21 18:32N 39°33' E 002°38'0 0.0
2014-Jul-21 17:32N 39°33' E 002°38'0 0.0
2014-Jul-21 16:32N 39°33' E 002°38'0 0.0
2014-Jul-21 15:32N 39°33' E 002°38'0 0.0
2014-Jul-21 14:32N 39°33' E 002°38'0 0.0
2014-Jul-21 13:32N 39°33' E 002°38'0 0.0
2014-Jul-21 12:32N 39°33' E 002°38'0 0.0
2014-Jul-21 11:32N 39°33' E 002°38'0 0.0
2014-Jul-21 10:29N 39°33' E 002°38'0 0.0
2014-Jul-21 09:32N 39°33' E 002°38'0 0.0
2014-Jul-21 08:29N 39°33' E 002°38'0 0.0
2014-Jul-21 07:32N 39°33' E 002°38'0 0.0
2014-Jul-21 06:32N 39°33' E 002°38'0 0.0
2014-Jul-21 05:32N 39°33' E 002°38'0 0.0
2014-Jul-21 04:32N 39°33' E 002°38'0 0.0
2014-Jul-21 03:32N 39°33' E 002°38'0 0.0
2014-Jul-21 02:32N 39°33' E 002°38'0 0.0
2014-Jul-21 01:32N 39°33' E 002°38'0 0.0
2014-Jul-21 00:29N 39°33' E 002°38'0 0.0
2014-Jul-20 23:32N 39°33' E 002°38'0 0.0
2014-Jul-20 22:32N 39°33' E 002°38'0 0.1
2014-Jul-20 21:32N 39°33' E 002°38'5 5.6
2014-Jul-20 20:33N 39°28' E 002°36'1413.6
2014-Jul-20 19:33N 39°20' E 002°22'1713.5
2014-Jul-20 18:16N 39°11' E 002°03'912.7
2014-Jul-20 17:33N 39°06' E 001°53'1413.1
2014-Jul-20 16:30N 38°59' E 001°38'  
2014-Jul-17 17:11N 38°54' E 001°27'33 2.0
2014-Jul-17 00:28N 39°11' E 002°03'1111.6
2014-Jul-16 23:34N 39°17' E 002°14'1211.9
2014-Jul-16 22:33N 39°24' E 002°26'7 3.7
2014-Jul-16 20:33N 39°30' E 002°32'0 0.0
2014-Jul-16 19:33N 39°30' E 002°32'0 0.0
2014-Jul-16 18:33N 39°30' E 002°32'0 0.0
2014-Jul-16 17:24N 39°30' E 002°32'0 0.0
2014-Jul-16 16:33N 39°30' E 002°32'0 0.0
2014-Jul-16 15:09N 39°30' E 002°32'0 0.0
2014-Jul-16 14:33N 39°30' E 002°32'0 0.0
2014-Jul-16 13:33N 39°30' E 002°32'0 0.0
2014-Jul-16 12:24N 39°30' E 002°32'  
Track history (hours):
 
Tides and Currents Weather Stations Pressure Air Temp Water Temp Dewpoint Dewpoint Depression Visibility Wind Speed Wind Dir Waves Ship Positions

Grenadines III

Last reported at 2014-Jul-26 12:05 UTC. Time now 2014-Jul-26 13:10 UTC.
Position N 39°31' E 002°33'.

Type: Pilot. MMSI: 225910870.

Date/timePositionNaut miles runAvg speedWind from/ knotsBaromVisibWave heightAir tempDewpointWater temp
2014-Jul-26 12:05N 39°31' E 002°33'0 0.0
2014-Jul-26 11:29N 39°31' E 002°33'0 0.0
2014-Jul-26 10:29N 39°31' E 002°33'0 0.0
2014-Jul-26 09:31N 39°31' E 002°33'8 8.7
2014-Jul-26 08:33N 39°24' E 002°27'1010.0
2014-Jul-26 07:33N 39°18' E 002°16'1010.3
2014-Jul-26 06:33N 39°12' E 002°06'1010.4
2014-Jul-26 05:33N 39°06' E 001°55'1110.8
2014-Jul-26 04:33N 38°59' E 001°44'1111.0
2014-Jul-26 03:33N 38°54' E 001°31'4 0.5
2014-Jul-25 19:27N 38°54' E 001°27'8 0.8
2014-Jul-25 09:34N 38°46' E 001°26'2 0.5
2014-Jul-25 05:13N 38°48' E 001°24'710.8
2014-Jul-25 04:32N 38°52' E 001°32'1111.3
2014-Jul-25 03:33N 38°59' E 001°44'1111.3
2014-Jul-25 02:33N 39°06' E 001°55'1111.3
2014-Jul-25 01:33N 39°12' E 002°06'1111.1
2014-Jul-25 00:33N 39°19' E 002°18'1111.0
2014-Jul-24 23:33N 39°25' E 002°29'5 4.8
2014-Jul-24 22:31N 39°30' E 002°32'0 0.0
2014-Jul-24 21:31N 39°30' E 002°32'0 0.0
2014-Jul-24 20:19N 39°30' E 002°32'0 0.0
2014-Jul-24 19:22N 39°30' E 002°32'6 7.0
2014-Jul-24 18:33N 39°33' E 002°38'0 0.5
2014-Jul-24 17:32N 39°33' E 002°38'0 0.0
2014-Jul-24 16:32N 39°33' E 002°38'0 0.0
2014-Jul-24 15:32N 39°33' E 002°38'0 0.0
2014-Jul-24 14:32N 39°33' E 002°38'0 0.0
2014-Jul-24 13:32N 39°33' E 002°38'0 0.0
2014-Jul-24 12:32N 39°33' E 002°38'0 0.0
2014-Jul-24 11:32N 39°33' E 002°38'0 0.0
2014-Jul-24 10:32N 39°33' E 002°38'0 0.0
2014-Jul-24 09:32N 39°33' E 002°38'0 0.0
2014-Jul-24 08:32N 39°33' E 002°38'0 0.0
2014-Jul-24 07:32N 39°33' E 002°38'0 0.0
2014-Jul-24 06:32N 39°33' E 002°38'0 0.0
2014-Jul-24 05:32N 39°33' E 002°38'0 0.0
2014-Jul-24 04:32N 39°33' E 002°38'0 0.0
2014-Jul-24 03:32N 39°33' E 002°38'0 0.0
2014-Jul-24 02:32N 39°33' E 002°38'0 0.0
2014-Jul-24 01:32N 39°33' E 002°38'0 0.0
2014-Jul-24 00:32N 39°33' E 002°38'0 0.0
2014-Jul-23 23:32N 39°33' E 002°38'0 0.0
2014-Jul-23 22:32N 39°33' E 002°38'0 0.0
2014-Jul-23 21:32N 39°33' E 002°38'0 0.0
2014-Jul-23 20:32N 39°33' E 002°38'0 0.0
2014-Jul-23 19:32N 39°33' E 002°38'0 0.0
2014-Jul-23 18:32N 39°33' E 002°38'0 0.0
2014-Jul-23 17:32N 39°33' E 002°38'0 0.1
2014-Jul-23 16:32N 39°33' E 002°38'0 0.1
2014-Jul-23 15:32N 39°33' E 002°38'0 0.0
2014-Jul-23 14:32N 39°33' E 002°38'0 0.0
2014-Jul-23 13:32N 39°33' E 002°38'0 0.0
2014-Jul-23 12:32N 39°33' E 002°38'0 0.0
2014-Jul-23 11:32N 39°33' E 002°38'0 0.0
2014-Jul-23 10:32N 39°33' E 002°38'0 0.0
2014-Jul-23 09:32N 39°33' E 002°38'0 0.0
2014-Jul-23 08:32N 39°33' E 002°38'0 0.0
2014-Jul-23 07:32N 39°33' E 002°38'0 0.0
2014-Jul-23 06:32N 39°33' E 002°38'0 0.0
2014-Jul-23 05:32N 39°33' E 002°38'0 0.0
2014-Jul-23 04:32N 39°33' E 002°38'0 0.0
2014-Jul-23 03:32N 39°33' E 002°38'0 0.0
2014-Jul-23 02:32N 39°33' E 002°38'0 0.0
2014-Jul-23 01:32N 39°33' E 002°38'0 0.0
2014-Jul-23 00:32N 39°33' E 002°38'0 0.0
2014-Jul-22 23:32N 39°33' E 002°38'0 0.0
2014-Jul-22 22:32N 39°33' E 002°38'0 0.0
2014-Jul-22 21:32N 39°33' E 002°38'0 0.0
2014-Jul-22 20:32N 39°33' E 002°38'0 0.0
2014-Jul-22 19:32N 39°33' E 002°38'0 0.0
2014-Jul-22 18:32N 39°33' E 002°38'0 0.0
2014-Jul-22 17:32N 39°33' E 002°38'0 0.0
2014-Jul-22 16:32N 39°33' E 002°38'0 0.0
2014-Jul-22 15:32N 39°33' E 002°38'0 0.0
2014-Jul-22 14:32N 39°33' E 002°38'0 0.0
2014-Jul-22 13:32N 39°33' E 002°38'0 0.0
2014-Jul-22 12:32N 39°33' E 002°38'0 0.0
2014-Jul-22 11:32N 39°33' E 002°38'0 0.0
2014-Jul-22 10:32N 39°33' E 002°38'0 0.0
2014-Jul-22 09:32N 39°33' E 002°38'0 0.0
2014-Jul-22 08:32N 39°33' E 002°38'0 0.0
2014-Jul-22 07:32N 39°33' E 002°38'0 0.0
2014-Jul-22 06:32N 39°33' E 002°38'0 0.0
2014-Jul-22 05:32N 39°33' E 002°38'0 0.0
2014-Jul-22 04:32N 39°33' E 002°38'0 0.0
2014-Jul-22 03:32N 39°33' E 002°38'0 0.0
2014-Jul-22 02:32N 39°33' E 002°38'0 0.0
2014-Jul-22 01:32N 39°33' E 002°38'0 0.0
2014-Jul-22 00:32N 39°33' E 002°38'0 0.0
2014-Jul-21 23:32N 39°33' E 002°38'0 0.0
2014-Jul-21 22:32N 39°33' E 002°38'0 0.0
2014-Jul-21 21:29N 39°33' E 002°38'0 0.0
2014-Jul-21 20:32N 39°33' E 002°38'0 0.0
2014-Jul-21 20:17N 39°33' E 002°38'0 0.0
2014-Jul-21 19:32N 39°33' E 002°38'0 0.0
2014-Jul-21 18:32N 39°33' E 002°38'0 0.0
2014-Jul-21 17:32N 39°33' E 002°38'0 0.0
2014-Jul-21 16:32N 39°33' E 002°38'0 0.0
2014-Jul-21 15:32N 39°33' E 002°38'0 0.0
2014-Jul-21 14:32N 39°33' E 002°38'0 0.0
2014-Jul-21 13:32N 39°33' E 002°38'0 0.0
2014-Jul-21 12:32N 39°33' E 002°38'0 0.0
2014-Jul-21 11:32N 39°33' E 002°38'0 0.0
2014-Jul-21 10:29N 39°33' E 002°38'0 0.0
2014-Jul-21 09:32N 39°33' E 002°38'0 0.0
2014-Jul-21 08:29N 39°33' E 002°38'0 0.0
2014-Jul-21 07:32N 39°33' E 002°38'0 0.0
2014-Jul-21 06:32N 39°33' E 002°38'0 0.0
2014-Jul-21 05:32N 39°33' E 002°38'0 0.0
2014-Jul-21 04:32N 39°33' E 002°38'0 0.0
2014-Jul-21 03:32N 39°33' E 002°38'0 0.0
2014-Jul-21 02:32N 39°33' E 002°38'0 0.0
2014-Jul-21 01:32N 39°33' E 002°38'0 0.0
2014-Jul-21 00:29N 39°33' E 002°38'0 0.0
2014-Jul-20 23:32N 39°33' E 002°38'0 0.0
2014-Jul-20 22:32N 39°33' E 002°38'0 0.1
2014-Jul-20 21:32N 39°33' E 002°38'5 5.6
2014-Jul-20 20:33N 39°28' E 002°36'1413.6
2014-Jul-20 19:33N 39°20' E 002°22'1713.5
2014-Jul-20 18:16N 39°11' E 002°03'912.7
2014-Jul-20 17:33N 39°06' E 001°53'1413.1
2014-Jul-20 16:30N 38°59' E 001°38'  
2014-Jul-17 17:11N 38°54' E 001°27'33 2.0
2014-Jul-17 00:28N 39°11' E 002°03'1111.6
2014-Jul-16 23:34N 39°17' E 002°14'1211.9
2014-Jul-16 22:33N 39°24' E 002°26'7 3.7
2014-Jul-16 20:33N 39°30' E 002°32'0 0.0
2014-Jul-16 19:33N 39°30' E 002°32'0 0.0
2014-Jul-16 18:33N 39°30' E 002°32'0 0.0
2014-Jul-16 17:24N 39°30' E 002°32'0 0.0
2014-Jul-16 16:33N 39°30' E 002°32'0 0.0
2014-Jul-16 15:09N 39°30' E 002°32'0 0.0
2014-Jul-16 14:33N 39°30' E 002°32'0 0.0
2014-Jul-16 13:33N 39°30' E 002°32'0 0.0
2014-Jul-16 12:24N 39°30' E 002°32'  

Dump ship's entire track history